sensor_id;sensor_type;location;lat;lon;timestamp;pressure;altitude;pressure_sealevel;temperature;humidity
21760;BME280;11041;50.854;20.580;2023-09-18T00:00:56;98955.81;;;16.75;100.00
21760;BME280;11041;50.854;20.580;2023-09-18T00:03:40;98957.34;;;16.73;100.00
21760;BME280;11041;50.854;20.580;2023-09-18T00:06:08;98956.53;;;16.72;100.00
21760;BME280;11041;50.854;20.580;2023-09-18T00:08:35;98950.50;;;16.70;100.00
21760;BME280;11041;50.854;20.580;2023-09-18T00:11:01;98957.25;;;16.69;100.00
21760;BME280;11041;50.854;20.580;2023-09-18T00:13:32;98957.25;;;16.69;100.00
21760;BME280;11041;50.854;20.580;2023-09-18T00:15:59;98950.84;;;16.69;100.00
21760;BME280;11041;50.854;20.580;2023-09-18T00:18:26;98950.06;;;16.68;100.00
21760;BME280;11041;50.854;20.580;2023-09-18T00:20:58;98953.63;;;16.69;100.00
21760;BME280;11041;50.854;20.580;2023-09-18T00:23:25;98950.06;;;16.68;100.00
21760;BME280;11041;50.854;20.580;2023-09-18T00:25:54;98953.16;;;16.67;100.00
21760;BME280;11041;50.854;20.580;2023-09-18T00:28:21;98948.78;;;16.66;100.00
21760;BME280;11041;50.854;20.580;2023-09-18T00:30:51;98961.16;;;16.68;100.00
21760;BME280;11041;50.854;20.580;2023-09-18T00:33:22;98951.69;;;16.69;100.00
21760;BME280;11041;50.854;20.580;2023-09-18T00:35:50;98954.91;;;16.71;100.00
21760;BME280;11041;50.854;20.580;2023-09-18T00:38:18;98954.91;;;16.71;100.00
21760;BME280;11041;50.854;20.580;2023-09-18T00:40:47;98950.50;;;16.70;100.00
21760;BME280;11041;50.854;20.580;2023-09-18T00:43:14;98951.31;;;16.71;100.00
21760;BME280;11041;50.854;20.580;2023-09-18T00:45:51;98952.84;;;16.68;100.00
21760;BME280;11041;50.854;20.580;2023-09-18T00:48:18;98948.44;;;16.67;100.00
21760;BME280;11041;50.854;20.580;2023-09-18T00:50:46;98950.75;;;16.65;100.00
21760;BME280;11041;50.854;20.580;2023-09-18T00:53:20;98947.88;;;16.61;100.00
21760;BME280;11041;50.854;20.580;2023-09-18T00:55:55;98950.56;;;16.58;100.00
21760;BME280;11041;50.854;20.580;2023-09-18T00:58:27;98948.03;;;16.53;100.00
21760;BME280;11041;50.854;20.580;2023-09-18T01:00:55;98941.78;;;16.44;100.00
21760;BME280;11041;50.854;20.580;2023-09-18T01:03:22;98931.63;;;16.35;100.00
21760;BME280;11041;50.854;20.580;2023-09-18T01:05:49;98936.03;;;16.36;100.00
21760;BME280;11041;50.854;20.580;2023-09-18T01:08:16;98934.63;;;16.30;100.00
21760;BME280;11041;50.854;20.580;2023-09-18T01:10:56;98940.09;;;16.27;100.00
21760;BME280;11041;50.854;20.580;2023-09-18T01:13:31;98937.66;;;16.25;100.00
21760;BME280;11041;50.854;20.580;2023-09-18T01:16:32;98942.75;;;16.23;100.00
21760;BME280;11041;50.854;20.580;2023-09-18T01:19:00;98945.75;;;16.18;100.00
21760;BME280;11041;50.854;20.580;2023-09-18T01:21:31;98950.81;;;16.16;100.00
21760;BME280;11041;50.854;20.580;2023-09-18T01:24:02;98950.38;;;16.14;100.00
21760;BME280;11041;50.854;20.580;2023-09-18T01:26:29;98953.84;;;16.11;100.00
21760;BME280;11041;50.854;20.580;2023-09-18T01:28:56;98950.97;;;16.07;100.00
21760;BME280;11041;50.854;20.580;2023-09-18T01:31:25;98949.56;;;16.01;100.00
21760;BME280;11041;50.854;20.580;2023-09-18T01:33:53;98939.88;;;15.95;100.00
21760;BME280;11041;50.854;20.580;2023-09-18T01:36:20;98948.53;;;15.93;100.00
21760;BME280;11041;50.854;20.580;2023-09-18T01:38:51;98956.28;;;15.88;100.00
21760;BME280;11041;50.854;20.580;2023-09-18T01:41:21;98945.06;;;15.84;100.00
21760;BME280;11041;50.854;20.580;2023-09-18T01:43:47;98934.69;;;15.81;100.00
21760;BME280;11041;50.854;20.580;2023-09-18T01:46:15;98943.22;;;15.76;100.00
21760;BME280;11041;50.854;20.580;2023-09-18T01:48:49;98948.63;;;15.72;100.00
21760;BME280;11041;50.854;20.580;2023-09-18T01:51:18;98945.25;;;15.67;100.00
21760;BME280;11041;50.854;20.580;2023-09-18T01:53:44;98953.00;;;15.61;100.00
21760;BME280;11041;50.854;20.580;2023-09-18T01:56:11;98947.66;;;15.56;100.00
21760;BME280;11041;50.854;20.580;2023-09-18T01:58:38;98942.31;;;15.51;100.00
21760;BME280;11041;50.854;20.580;2023-09-18T02:01:05;98941.41;;;15.47;100.00
21760;BME280;11041;50.854;20.580;2023-09-18T02:03:34;98949.13;;;15.41;100.00
21760;BME280;11041;50.854;20.580;2023-09-18T02:06:06;98949.00;;;15.38;100.00
21760;BME280;11041;50.854;20.580;2023-09-18T02:08:32;98954.41;;;15.34;100.00
21760;BME280;11041;50.854;20.580;2023-09-18T02:11:03;98951.16;;;15.32;100.00
21760;BME280;11041;50.854;20.580;2023-09-18T02:13:31;98947.97;;;15.30;100.00
21760;BME280;11041;50.854;20.580;2023-09-18T02:16:01;98953.50;;;15.30;100.00
21760;BME280;11041;50.854;20.580;2023-09-18T02:18:30;98958.88;;;15.26;100.00
21760;BME280;11041;50.854;20.580;2023-09-18T02:20:59;98950.47;;;15.23;100.00
21760;BME280;11041;50.854;20.580;2023-09-18T02:23:25;98951.13;;;15.20;100.00
21760;BME280;11041;50.854;20.580;2023-09-18T02:25:57;98952.84;;;15.12;100.00
21760;BME280;11041;50.854;20.580;2023-09-18T02:28:24;98951.09;;;15.07;100.00
21760;BME280;11041;50.854;20.580;2023-09-18T02:30:51;98950.97;;;15.04;100.00
21760;BME280;11041;50.854;20.580;2023-09-18T02:33:20;98950.19;;;15.03;100.00
21760;BME280;11041;50.854;20.580;2023-09-18T02:35:47;98950.97;;;15.04;100.00
21760;BME280;11041;50.854;20.580;2023-09-18T02:38:14;98952.47;;;15.01;100.00
21760;BME280;11041;50.854;20.580;2023-09-18T02:40:46;98944.38;;;14.96;100.00
21760;BME280;11041;50.854;20.580;2023-09-18T02:43:12;98938.38;;;14.94;100.00
21760;BME280;11041;50.854;20.580;2023-09-18T02:45:40;98941.00;;;14.90;100.00
21760;BME280;11041;50.854;20.580;2023-09-18T02:48:06;98934.53;;;14.86;100.00
21760;BME280;11041;50.854;20.580;2023-09-18T02:50:35;98936.84;;;14.84;100.00
21760;BME280;11041;50.854;20.580;2023-09-18T02:53:02;98947.75;;;14.81;100.00
21760;BME280;11041;50.854;20.580;2023-09-18T02:55:33;98931.84;;;14.78;100.00
21760;BME280;11041;50.854;20.580;2023-09-18T02:58:00;98932.16;;;14.76;100.00
21760;BME280;11041;50.854;20.580;2023-09-18T03:00:28;98934.47;;;14.74;100.00
21760;BME280;11041;50.854;20.580;2023-09-18T03:02:55;98942.63;;;14.70;100.00
21760;BME280;11041;50.854;20.580;2023-09-18T03:05:24;98948.97;;;14.71;100.00
21760;BME280;11041;50.854;20.580;2023-09-18T03:07:57;98938.72;;;14.72;100.00
21760;BME280;11041;50.854;20.580;2023-09-18T03:10:24;98944.94;;;14.68;100.00
21760;BME280;11041;50.854;20.580;2023-09-18T03:12:51;98943.84;;;14.61;100.00
21760;BME280;11041;50.854;20.580;2023-09-18T03:15:18;98942.56;;;14.58;100.00
21760;BME280;11041;50.854;20.580;2023-09-18T03:17:45;98941.63;;;14.54;100.00
21760;BME280;11041;50.854;20.580;2023-09-18T03:20:15;98946.66;;;14.52;100.00
21760;BME280;11041;50.854;20.580;2023-09-18T03:22:44;98939.50;;;14.51;100.00
21760;BME280;11041;50.854;20.580;2023-09-18T03:25:13;98942.59;;;14.49;100.00
21760;BME280;11041;50.854;20.580;2023-09-18T03:27:42;98934.66;;;14.48;100.00
21760;BME280;11041;50.854;20.580;2023-09-18T03:30:11;98939.72;;;14.46;100.00
21760;BME280;11041;50.854;20.580;2023-09-18T03:32:45;98937.75;;;14.46;100.00
21760;BME280;11041;50.854;20.580;2023-09-18T03:35:18;98930.59;;;14.45;100.00
21760;BME280;11041;50.854;20.580;2023-09-18T03:37:53;98930.47;;;14.42;100.00
21760;BME280;11041;50.854;20.580;2023-09-18T03:40:23;98936.00;;;14.42;100.00
21760;BME280;11041;50.854;20.580;2023-09-18T03:42:54;98935.50;;;14.40;100.00
21760;BME280;11041;50.854;20.580;2023-09-18T03:45:26;98933.56;;;14.40;100.00
21760;BME280;11041;50.854;20.580;2023-09-18T03:47:55;98923.31;;;14.41;100.00
21760;BME280;11041;50.854;20.580;2023-09-18T03:50:24;98921.22;;;14.38;100.00
21760;BME280;11041;50.854;20.580;2023-09-18T03:52:53;98930.19;;;14.35;100.00
21760;BME280;11041;50.854;20.580;2023-09-18T03:55:22;98918.66;;;14.33;100.00
21760;BME280;11041;50.854;20.580;2023-09-18T03:57:52;98924.97;;;14.33;100.00
21760;BME280;11041;50.854;20.580;2023-09-18T04:00:21;98915.88;;;14.33;100.00
21760;BME280;11041;50.854;20.580;2023-09-18T04:02:50;98919.00;;;14.31;100.00
21760;BME280;11041;50.854;20.580;2023-09-18T04:05:19;98921.41;;;14.33;100.00
21760;BME280;11041;50.854;20.580;2023-09-18T04:07:48;98907.94;;;14.31;100.00
21760;BME280;11041;50.854;20.580;2023-09-18T04:10:15;98899.97;;;14.30;100.00
21760;BME280;11041;50.854;20.580;2023-09-18T04:12:54;98899.97;;;14.30;100.00
21760;BME280;11041;50.854;20.580;2023-09-18T04:15:24;98905.50;;;14.30;100.00
21760;BME280;11041;50.854;20.580;2023-09-18T04:17:51;98904.84;;;14.33;100.00
21760;BME280;11041;50.854;20.580;2023-09-18T04:20:23;98905.31;;;14.35;100.00
21760;BME280;11041;50.854;20.580;2023-09-18T04:23:37;98918.31;;;14.34;100.00
21760;BME280;11041;50.854;20.580;2023-09-18T04:26:06;98904.03;;;14.32;100.00
21760;BME280;11041;50.854;20.580;2023-09-18T04:28:33;98915.09;;;14.32;100.00
21760;BME280;11041;50.854;20.580;2023-09-18T04:31:00;98915.88;;;14.33;100.00
21760;BME280;11041;50.854;20.580;2023-09-18T04:33:28;98907.28;;;14.34;100.00
21760;BME280;11041;50.854;20.580;2023-09-18T04:35:55;98906.47;;;14.34;100.00
21760;BME280;11041;50.854;20.580;2023-09-18T04:38:22;98915.88;;;14.33;100.00
21760;BME280;11041;50.854;20.580;2023-09-18T04:40:57;98913.59;;;14.35;100.00
21760;BME280;11041;50.854;20.580;2023-09-18T04:43:25;98908.59;;;14.28;100.00
21760;BME280;11041;50.854;20.580;2023-09-18T04:45:53;98910.09;;;14.25;100.00
21760;BME280;11041;50.854;20.580;2023-09-18T04:48:19;98902.59;;;14.26;100.00
21760;BME280;11041;50.854;20.580;2023-09-18T04:50:46;98906.19;;;14.26;100.00
21760;BME280;11041;50.854;20.580;2023-09-18T04:53:13;98906.63;;;14.28;100.00
21760;BME280;11041;50.854;20.580;2023-09-18T04:55:41;98898.97;;;14.34;100.00
21760;BME280;11041;50.854;20.580;2023-09-18T04:58:07;98896.47;;;14.41;100.00
21760;BME280;11041;50.854;20.580;2023-09-18T05:00:37;98898.25;;;14.46;100.00
21760;BME280;11041;50.854;20.580;2023-09-18T05:03:05;98888.28;;;14.54;100.00
21760;BME280;11041;50.854;20.580;2023-09-18T05:05:32;98898.44;;;14.62;100.00
21760;BME280;11041;50.854;20.580;2023-09-18T05:08:03;98895.94;;;14.69;100.00
21760;BME280;11041;50.854;20.580;2023-09-18T05:10:31;98903.38;;;14.77;100.00
21760;BME280;11041;50.854;20.580;2023-09-18T05:12:57;98894.88;;;14.82;100.00
21760;BME280;11041;50.854;20.580;2023-09-18T05:15:27;98895.94;;;14.90;100.00
21760;BME280;11041;50.854;20.580;2023-09-18T05:17:58;98886.59;;;14.95;100.00
21760;BME280;11041;50.854;20.580;2023-09-18T05:20:27;98893.53;;;15.01;100.00
21760;BME280;11041;50.854;20.580;2023-09-18T05:22:56;98893.66;;;15.04;100.00
21760;BME280;11041;50.854;20.580;2023-09-18T05:25:28;98871.63;;;15.08;100.00
21760;BME280;11041;50.854;20.580;2023-09-18T05:28:01;98870.63;;;15.12;100.00
21760;BME280;11041;50.854;20.580;2023-09-18T05:30:32;98873.06;;;15.14;100.00
21760;BME280;11041;50.854;20.580;2023-09-18T05:33:02;98880.81;;;15.21;100.00
21760;BME280;11041;50.854;20.580;2023-09-18T05:35:43;98884.84;;;15.23;100.00
21760;BME280;11041;50.854;20.580;2023-09-18T05:38:14;98884.94;;;15.27;100.00
21760;BME280;11041;50.854;20.580;2023-09-18T05:40:41;98886.22;;;15.29;100.00
21760;BME280;11041;50.854;20.580;2023-09-18T05:43:09;98878.06;;;15.33;100.00
21760;BME280;11041;50.854;20.580;2023-09-18T05:45:36;98875.06;;;15.38;100.00
21760;BME280;11041;50.854;20.580;2023-09-18T05:48:03;98864.56;;;15.44;100.00
21760;BME280;11041;50.854;20.580;2023-09-18T05:50:34;98859.47;;;15.46;100.00
21760;BME280;11041;50.854;20.580;2023-09-18T05:53:10;98864.31;;;15.49;100.00
21760;BME280;11041;50.854;20.580;2023-09-18T05:55:37;98864.13;;;15.54;100.00
21760;BME280;11041;50.854;20.580;2023-09-18T05:58:07;98863.88;;;15.59;100.00
21760;BME280;11041;50.854;20.580;2023-09-18T06:00:36;98862.16;;;15.67;100.00
21760;BME280;11041;50.854;20.580;2023-09-18T06:03:03;98858.47;;;15.75;100.00
21760;BME280;11041;50.854;20.580;2023-09-18T06:05:32;98853.16;;;15.82;100.00
21760;BME280;11041;50.854;20.580;2023-09-18T06:08:00;98855.47;;;15.92;100.00
21760;BME280;11041;50.854;20.580;2023-09-18T06:10:29;98854.19;;;16.02;100.00
21760;BME280;11041;50.854;20.580;2023-09-18T06:12:59;98852.06;;;16.11;100.00
21760;BME280;11041;50.854;20.580;2023-09-18T06:15:30;98859.13;;;16.21;100.00
21760;BME280;11041;50.854;20.580;2023-09-18T06:17:57;98857.00;;;16.30;100.00
21760;BME280;11041;50.854;20.580;2023-09-18T06:20:24;98846.59;;;16.39;100.00
21760;BME280;11041;50.854;20.580;2023-09-18T06:22:51;98847.59;;;16.47;100.00
21760;BME280;11041;50.854;20.580;2023-09-18T06:25:20;98848.25;;;16.56;100.00
21760;BME280;11041;50.854;20.580;2023-09-18T06:27:48;98850.88;;;16.65;100.00
21760;BME280;11041;50.854;20.580;2023-09-18T06:30:17;98842.41;;;16.74;100.00
21760;BME280;11041;50.854;20.580;2023-09-18T06:32:44;98844.25;;;16.82;100.00
21760;BME280;11041;50.854;20.580;2023-09-18T06:35:11;98854.03;;;16.92;100.00
21760;BME280;11041;50.854;20.580;2023-09-18T06:37:38;98852.69;;;17.01;100.00
21760;BME280;11041;50.854;20.580;2023-09-18T06:40:09;98850.91;;;17.09;100.00
21760;BME280;11041;50.854;20.580;2023-09-18T06:42:36;98852.38;;;17.19;100.00
21760;BME280;11041;50.854;20.580;2023-09-18T06:45:05;98854.88;;;17.24;100.00
21760;BME280;11041;50.854;20.580;2023-09-18T06:47:36;98854.72;;;17.33;100.00
21760;BME280;11041;50.854;20.580;2023-09-18T06:50:03;98848.44;;;17.36;100.00
21760;BME280;11041;50.854;20.580;2023-09-18T06:52:31;98844.69;;;17.44;100.00
21760;BME280;11041;50.854;20.580;2023-09-18T06:54:59;98842.88;;;17.52;100.00
21760;BME280;11041;50.854;20.580;2023-09-18T06:57:26;98843.84;;;17.59;100.00
21760;BME280;11041;50.854;20.580;2023-09-18T06:59:53;98854.41;;;17.70;100.00
21760;BME280;11041;50.854;20.580;2023-09-18T07:02:20;98852.19;;;17.75;100.00
21760;BME280;11041;50.854;20.580;2023-09-18T07:04:49;98856.78;;;17.83;100.00
21760;BME280;11041;50.854;20.580;2023-09-18T07:07:17;98847.00;;;17.90;100.00
21760;BME280;11041;50.854;20.580;2023-09-18T07:09:50;98848.41;;;17.99;100.00
21760;BME280;11041;50.854;20.580;2023-09-18T07:12:17;98848.19;;;18.08;100.00
21760;BME280;11041;50.854;20.580;2023-09-18T07:14:47;98851.22;;;18.19;100.00
21760;BME280;11041;50.854;20.580;2023-09-18T07:17:14;98854.88;;;18.23;100.00
21760;BME280;11041;50.854;20.580;2023-09-18T07:19:41;98854.63;;;18.28;100.00
21760;BME280;11041;50.854;20.580;2023-09-18T07:22:10;98865.16;;;18.38;100.00
21760;BME280;11041;50.854;20.580;2023-09-18T07:24:36;98863.31;;;18.46;100.00
21760;BME280;11041;50.854;20.580;2023-09-18T07:27:07;98852.00;;;18.55;100.00
21760;BME280;11041;50.854;20.580;2023-09-18T07:29:33;98861.63;;;18.61;99.91
21760;BME280;11041;50.854;20.580;2023-09-18T07:32:01;98858.25;;;18.71;97.20
21760;BME280;11041;50.854;20.580;2023-09-18T07:34:28;98858.81;;;18.77;96.67
21760;BME280;11041;50.854;20.580;2023-09-18T07:36:57;98849.81;;;18.83;97.23
21760;BME280;11041;50.854;20.580;2023-09-18T07:39:26;98841.97;;;18.89;97.18
21760;BME280;11041;50.854;20.580;2023-09-18T07:41:54;98852.47;;;18.99;96.76
21760;BME280;11041;50.854;20.580;2023-09-18T07:44:25;98864.56;;;19.07;96.36
21760;BME280;11041;50.854;20.580;2023-09-18T07:46:53;98859.25;;;19.21;94.97
21760;BME280;11041;50.854;20.580;2023-09-18T07:49:20;98859.50;;;19.35;92.86
21760;BME280;11041;50.854;20.580;2023-09-18T07:51:47;98853.22;;;19.39;92.31
21760;BME280;11041;50.854;20.580;2023-09-18T07:54:17;98846.94;;;19.45;92.89
21760;BME280;11041;50.854;20.580;2023-09-18T07:56:44;98846.25;;;19.52;92.77
21760;BME280;11041;50.854;20.580;2023-09-18T07:59:10;98852.31;;;19.57;92.32
21760;BME280;11041;50.854;20.580;2023-09-18T08:01:40;98840.91;;;19.66;91.30
21760;BME280;11041;50.854;20.580;2023-09-18T08:04:07;98829.91;;;19.73;91.31
21760;BME280;11041;50.854;20.580;2023-09-18T08:06:36;98816.06;;;19.81;91.29
21760;BME280;11041;50.854;20.580;2023-09-18T08:09:05;98830.94;;;19.88;90.84
21760;BME280;11041;50.854;20.580;2023-09-18T08:11:32;98821.53;;;20.00;88.47
21760;BME280;11041;50.854;20.580;2023-09-18T08:14:02;98822.00;;;20.06;88.42
21760;BME280;11041;50.854;20.580;2023-09-18T08:16:31;98831.69;;;20.15;88.98
21760;BME280;11041;50.854;20.580;2023-09-18T08:19:00;98827.84;;;20.24;88.88
21760;BME280;11041;50.854;20.580;2023-09-18T08:21:28;98830.72;;;20.31;88.20
21760;BME280;11041;50.854;20.580;2023-09-18T08:23:58;98829.63;;;20.39;88.54
21760;BME280;11041;50.854;20.580;2023-09-18T08:26:27;98818.19;;;20.48;88.64
21760;BME280;11041;50.854;20.580;2023-09-18T08:28:54;98815.53;;;20.58;87.64
21760;BME280;11041;50.854;20.580;2023-09-18T08:31:21;98831.72;;;20.76;83.57
21760;BME280;11041;50.854;20.580;2023-09-18T08:33:47;98825.44;;;20.86;81.48
21760;BME280;11041;50.854;20.580;2023-09-18T08:36:14;98823.91;;;20.92;82.91
21760;BME280;11041;50.854;20.580;2023-09-18T08:38:41;98812.78;;;20.99;83.25
21760;BME280;11041;50.854;20.580;2023-09-18T08:41:12;98814.06;;;21.05;83.24
21760;BME280;11041;50.854;20.580;2023-09-18T08:43:42;98820.53;;;21.13;82.82
21760;BME280;11041;50.854;20.580;2023-09-18T08:46:13;98823.00;;;21.22;84.25
21760;BME280;11041;50.854;20.580;2023-09-18T08:48:41;98813.53;;;21.34;81.70
21760;BME280;11041;50.854;20.580;2023-09-18T08:51:10;98802.84;;;21.43;80.38
21760;BME280;11041;50.854;20.580;2023-09-18T08:53:37;98794.91;;;21.48;80.60
21760;BME280;11041;50.854;20.580;2023-09-18T08:56:05;98805.38;;;21.59;79.75
21760;BME280;11041;50.854;20.580;2023-09-18T08:58:37;98799.06;;;21.69;78.44
21760;BME280;11041;50.854;20.580;2023-09-18T09:01:09;98798.34;;;21.79;79.00
21760;BME280;11041;50.854;20.580;2023-09-18T09:03:41;98793.97;;;21.85;80.25
21760;BME280;11041;50.854;20.580;2023-09-18T09:06:10;98784.84;;;21.92;78.60
21760;BME280;11041;50.854;20.580;2023-09-18T09:08:38;98795.25;;;21.99;78.75
21760;BME280;11041;50.854;20.580;2023-09-18T09:11:08;98786.09;;;22.05;79.20
21760;BME280;11041;50.854;20.580;2023-09-18T09:13:38;98790.13;;;22.11;78.63
21760;BME280;11041;50.854;20.580;2023-09-18T09:16:06;98778.97;;;22.19;79.30
21760;BME280;11041;50.854;20.580;2023-09-18T09:18:49;98777.03;;;22.26;78.97
21760;BME280;11041;50.854;20.580;2023-09-18T09:21:16;98778.69;;;22.35;77.49
21760;BME280;11041;50.854;20.580;2023-09-18T09:23:53;98771.09;;;22.39;75.41
21760;BME280;11041;50.854;20.580;2023-09-18T09:26:22;98762.31;;;22.47;76.11
21760;BME280;11041;50.854;20.580;2023-09-18T09:28:49;98758.34;;;22.55;76.28
21760;BME280;11041;50.854;20.580;2023-09-18T09:31:31;98765.59;;;22.64;76.46
21760;BME280;11041;50.854;20.580;2023-09-18T09:33:57;98759.59;;;22.69;76.02
21760;BME280;11041;50.854;20.580;2023-09-18T09:36:25;98756.81;;;22.76;74.79
21760;BME280;11041;50.854;20.580;2023-09-18T09:38:57;98769.22;;;22.86;74.01
21760;BME280;11041;50.854;20.580;2023-09-18T09:41:27;98756.81;;;22.94;73.51
21760;BME280;11041;50.854;20.580;2023-09-18T09:43:54;98753.25;;;22.97;73.67
21760;BME280;11041;50.854;20.580;2023-09-18T09:46:24;98745.25;;;22.99;73.17
21760;BME280;11041;50.854;20.580;2023-09-18T09:49:03;98745.66;;;23.05;74.50
21760;BME280;11041;50.854;20.580;2023-09-18T09:51:32;98745.66;;;23.08;72.89
21760;BME280;11041;50.854;20.580;2023-09-18T09:54:02;98745.66;;;23.15;72.91
21760;BME280;11041;50.854;20.580;2023-09-18T09:56:50;98746.47;;;23.23;73.25
21760;BME280;11041;50.854;20.580;2023-09-18T09:59:19;98739.66;;;23.28;72.18
21760;BME280;11041;50.854;20.580;2023-09-18T10:01:48;98741.25;;;23.39;70.03
21760;BME280;11041;50.854;20.580;2023-09-18T10:04:19;98746.84;;;23.47;71.60
21760;BME280;11041;50.854;20.580;2023-09-18T10:06:58;98747.25;;;23.49;70.14
21760;BME280;11041;50.854;20.580;2023-09-18T10:09:35;98739.22;;;23.54;70.11
21760;BME280;11041;50.854;20.580;2023-09-18T10:12:12;98733.22;;;23.59;70.50
21760;BME280;11041;50.854;20.580;2023-09-18T10:14:43;98723.19;;;23.58;69.46
21760;BME280;11041;50.854;20.580;2023-09-18T10:17:18;98731.22;;;23.67;69.97
21760;BME280;11041;50.854;20.580;2023-09-18T10:22:48;98736.03;;;23.77;69.22
21760;BME280;11041;50.854;20.580;2023-09-18T10:25:28;98731.97;;;23.86;67.46
21760;BME280;11041;50.854;20.580;2023-09-18T10:28:01;98725.56;;;23.92;67.41
21760;BME280;11041;50.854;20.580;2023-09-18T10:30:35;98720.75;;;23.96;66.70
21760;BME280;11041;50.854;20.580;2023-09-18T10:33:04;98715.94;;;23.93;65.33
21760;BME280;11041;50.854;20.580;2023-09-18T10:35:36;98715.09;;;24.00;65.55
21760;BME280;11041;50.854;20.580;2023-09-18T10:38:10;98720.72;;;24.03;65.61
21760;BME280;11041;50.854;20.580;2023-09-18T10:40:39;98712.22;;;24.18;64.22
21760;BME280;11041;50.854;20.580;2023-09-18T10:43:12;98705.41;;;24.22;64.63
21760;BME280;11041;50.854;20.580;2023-09-18T10:45:42;98710.97;;;24.30;65.13
21760;BME280;11041;50.854;20.580;2023-09-18T10:48:14;98697.31;;;24.35;64.86
21760;BME280;11041;50.854;20.580;2023-09-18T10:50:43;98699.69;;;24.40;64.79
21760;BME280;11041;50.854;20.580;2023-09-18T10:53:10;98696.47;;;24.42;64.08
21760;BME280;11041;50.854;20.580;2023-09-18T10:55:40;98699.25;;;24.45;63.33
21760;BME280;11041;50.854;20.580;2023-09-18T10:58:10;98699.22;;;24.53;62.76
21760;BME280;11041;50.854;20.580;2023-09-18T11:00:41;98689.56;;;24.61;60.47
21760;BME280;11041;50.854;20.580;2023-09-18T11:03:15;98673.06;;;24.66;61.04
21760;BME280;11041;50.854;20.580;2023-09-18T11:05:48;98673.84;;;24.67;61.07
21760;BME280;11041;50.854;20.580;2023-09-18T11:08:27;98674.59;;;24.75;60.96
21760;BME280;11041;50.854;20.580;2023-09-18T11:11:07;98671.38;;;24.80;62.52
21760;BME280;11041;50.854;20.580;2023-09-18T11:13:50;98680.56;;;24.84;62.51
21760;BME280;11041;50.854;20.580;2023-09-18T11:19:07;98676.50;;;24.92;62.10
21760;BME280;11041;50.854;20.580;2023-09-18T11:21:36;98666.38;;;24.98;62.56
21760;BME280;11041;50.854;20.580;2023-09-18T11:24:11;98679.59;;;25.05;62.21
21760;BME280;11041;50.854;20.580;2023-09-18T11:26:45;98666.31;;;25.05;60.89
21760;BME280;11041;50.854;20.580;2023-09-18T11:29:22;98667.13;;;25.06;62.86
21760;BME280;11041;50.854;20.580;2023-09-18T11:31:55;98667.13;;;25.06;62.66
21760;BME280;11041;50.854;20.580;2023-09-18T11:34:30;98670.38;;;25.04;62.21
21760;BME280;11041;50.854;20.580;2023-09-18T11:37:22;98662.69;;;25.08;63.01
21760;BME280;11041;50.854;20.580;2023-09-18T11:39:53;98667.44;;;25.15;61.25
21760;BME280;11041;50.854;20.580;2023-09-18T11:42:21;98667.03;;;25.20;62.02
21760;BME280;11041;50.854;20.580;2023-09-18T11:44:57;98660.59;;;25.23;61.83
21760;BME280;11041;50.854;20.580;2023-09-18T11:47:26;98662.16;;;25.28;60.83
21760;BME280;11041;50.854;20.580;2023-09-18T11:50:00;98650.84;;;25.32;60.51
21760;BME280;11041;50.854;20.580;2023-09-18T11:52:30;98649.22;;;25.34;60.58
21760;BME280;11041;50.854;20.580;2023-09-18T11:55:00;98655.63;;;25.38;61.48
21760;BME280;11041;50.854;20.580;2023-09-18T11:57:30;98653.03;;;25.55;58.04
21760;BME280;11041;50.854;20.580;2023-09-18T12:00:02;98655.34;;;25.63;59.87
21760;BME280;11041;50.854;20.580;2023-09-18T12:02:38;98655.72;;;25.65;61.27
21760;BME280;11041;50.854;20.580;2023-09-18T12:05:14;98650.06;;;25.69;60.18
21760;BME280;11041;50.854;20.580;2023-09-18T12:07:47;98651.09;;;25.86;60.03
21760;BME280;11041;50.854;20.580;2023-09-18T12:10:18;98652.59;;;25.94;59.39
21760;BME280;11041;50.854;20.580;2023-09-18T12:12:46;98649.38;;;25.96;59.18
21760;BME280;11041;50.854;20.580;2023-09-18T12:15:19;98641.66;;;26.00;59.81
21760;BME280;11041;50.854;20.580;2023-09-18T12:17:55;98633.09;;;26.10;59.84
21760;BME280;11041;50.854;20.580;2023-09-18T12:20:24;98627.75;;;26.16;59.03
21760;BME280;11041;50.854;20.580;2023-09-18T12:22:55;98625.28;;;26.22;58.38
21760;BME280;11041;50.854;20.580;2023-09-18T12:25:25;98625.63;;;26.24;58.95
21760;BME280;11041;50.854;20.580;2023-09-18T12:27:53;98615.34;;;26.13;57.81
21760;BME280;11041;50.854;20.580;2023-09-18T12:30:22;98614.16;;;26.11;57.30
21760;BME280;11041;50.854;20.580;2023-09-18T12:32:50;98612.88;;;26.16;58.32
21760;BME280;11041;50.854;20.580;2023-09-18T12:35:25;98601.63;;;26.16;57.02
21760;BME280;11041;50.854;20.580;2023-09-18T12:38:16;98602.38;;;26.20;55.74
21760;BME280;11041;50.854;20.580;2023-09-18T12:40:49;98608.31;;;26.25;56.57
21760;BME280;11041;50.854;20.580;2023-09-18T12:43:18;98595.91;;;26.23;55.62
21760;BME280;11041;50.854;20.580;2023-09-18T12:45:48;98599.19;;;26.18;55.84
21760;BME280;11041;50.854;20.580;2023-09-18T12:48:18;98585.50;;;26.20;55.57
21760;BME280;11041;50.854;20.580;2023-09-18T12:50:45;98585.00;;;26.25;56.27
21760;BME280;11041;50.854;20.580;2023-09-18T12:53:14;98584.03;;;26.35;55.29
21760;BME280;11041;50.854;20.580;2023-09-18T12:55:43;98584.19;;;26.51;55.29
21760;BME280;11041;50.854;20.580;2023-09-18T12:58:21;98577.97;;;26.64;54.27
21760;BME280;11041;50.854;20.580;2023-09-18T13:00:50;98567.34;;;26.75;54.45
21760;BME280;11041;50.854;20.580;2023-09-18T13:03:19;98563.16;;;26.83;53.80
21760;BME280;11041;50.854;20.580;2023-09-18T13:05:46;98552.34;;;27.02;50.91